createdAt,value
2018-05-04T00:01:20.170Z,10.37
2018-05-04T00:03:47.596Z,11.27
2018-05-04T00:06:15.066Z,8.67
2018-05-04T00:08:42.529Z,6.63
2018-05-04T00:11:09.981Z,6.93
2018-05-04T00:13:37.424Z,6.90
2018-05-04T00:16:04.922Z,6.00
2018-05-04T00:18:32.353Z,6.57
2018-05-04T00:20:59.769Z,8.07
2018-05-04T00:23:27.318Z,7.33
2018-05-04T00:25:54.750Z,8.43
2018-05-04T00:28:22.224Z,5.37
2018-05-04T00:30:49.677Z,7.90
2018-05-04T00:33:17.122Z,6.37
2018-05-04T00:35:44.550Z,6.57
2018-05-04T00:38:11.977Z,8.73
2018-05-04T00:40:39.461Z,9.67
2018-05-04T00:43:06.879Z,8.90
2018-05-04T00:45:34.489Z,9.77
2018-05-04T00:48:01.955Z,10.90
2018-05-04T00:50:29.429Z,10.40
2018-05-04T00:52:56.887Z,11.53
2018-05-04T00:55:24.318Z,15.17
2018-05-04T00:57:51.754Z,10.37
2018-05-04T01:00:19.262Z,11.47
2018-05-04T01:02:46.740Z,9.40
2018-05-04T01:05:14.174Z,12.50
2018-05-04T01:07:41.634Z,12.53
2018-05-04T01:10:09.085Z,13.20
2018-05-04T01:12:36.536Z,13.40
2018-05-04T01:15:03.973Z,14.90
2018-05-04T01:17:31.409Z,11.77
2018-05-04T01:19:58.862Z,11.90
2018-05-04T01:22:26.297Z,17.20
2018-05-04T01:24:53.817Z,12.50
2018-05-04T01:27:21.340Z,14.50
2018-05-04T01:29:48.793Z,15.60
2018-05-04T01:32:16.230Z,12.57
2018-05-04T01:34:43.654Z,13.47
2018-05-04T01:37:11.105Z,11.77
2018-05-04T01:39:38.532Z,12.03
2018-05-04T01:42:06.703Z,12.33
2018-05-04T01:44:34.153Z,10.40
2018-05-04T01:47:01.738Z,9.00
2018-05-04T01:49:29.269Z,9.13
2018-05-04T01:51:56.698Z,9.97
2018-05-04T01:54:24.241Z,9.10
2018-05-04T01:56:51.747Z,9.47
2018-05-04T01:59:19.173Z,9.57
2018-05-04T02:01:46.614Z,10.57
2018-05-04T02:04:14.093Z,10.50
2018-05-04T02:06:41.526Z,11.40
2018-05-04T02:09:08.964Z,11.10
2018-05-04T02:11:36.407Z,13.63
2018-05-04T02:14:03.848Z,11.67
2018-05-04T02:16:31.357Z,12.87
2018-05-04T02:18:58.792Z,11.30
2018-05-04T02:21:26.256Z,11.97
2018-05-04T02:23:53.704Z,10.73
2018-05-04T02:26:21.178Z,12.37
2018-05-04T02:28:48.615Z,13.70
2018-05-04T02:31:16.055Z,9.67
2018-05-04T02:33:43.537Z,12.87
2018-05-04T02:36:10.986Z,11.80
2018-05-04T02:38:38.466Z,11.60
2018-05-04T02:41:05.922Z,11.13
2018-05-04T02:43:33.402Z,12.87
2018-05-04T02:46:00.930Z,8.80
2018-05-04T02:48:28.354Z,8.93
2018-05-04T02:50:55.810Z,11.10
2018-05-04T02:53:23.284Z,10.17
2018-05-04T02:55:50.754Z,11.47
2018-05-04T02:58:18.228Z,11.67
2018-05-04T03:00:45.668Z,11.53
2018-05-04T03:03:13.180Z,13.47
2018-05-04T03:05:40.651Z,14.07
2018-05-04T03:08:08.089Z,13.47
2018-05-04T03:10:35.788Z,12.87
2018-05-04T03:13:03.223Z,13.13
2018-05-04T03:15:30.682Z,15.67
2018-05-04T03:17:58.114Z,14.40
2018-05-04T03:20:25.643Z,13.30
2018-05-04T03:22:53.100Z,14.77
2018-05-04T03:25:20.530Z,11.67
2018-05-04T03:27:48.072Z,9.43
2018-05-04T03:30:15.516Z,13.47
2018-05-04T03:32:42.965Z,16.37
2018-05-04T03:35:10.446Z,12.10
2018-05-04T03:37:37.886Z,17.17
2018-05-04T03:40:05.401Z,18.40
2018-05-04T03:42:32.839Z,29.27
2018-05-04T03:45:01.198Z,22.47
2018-05-04T03:47:28.634Z,27.27
2018-05-04T03:49:56.085Z,14.17
2018-05-04T03:52:23.567Z,22.27
2018-05-04T03:54:51.049Z,15.67
2018-05-04T03:57:30.323Z,21.10
2018-05-04T04:00:09.668Z,19.50
2018-05-04T04:02:48.832Z,20.63
2018-05-04T04:05:16.340Z,13.57
2018-05-04T04:07:43.812Z,12.40
2018-05-04T04:10:11.319Z,17.70
2018-05-04T04:12:38.948Z,11.90
2018-05-04T04:15:06.352Z,10.30
2018-05-04T04:17:33.801Z,9.60
2018-05-04T04:20:01.236Z,11.10
2018-05-04T04:22:28.706Z,10.50
2018-05-04T04:24:56.164Z,16.87
2018-05-04T04:27:24.758Z,11.03
2018-05-04T04:29:52.202Z,13.73
2018-05-04T04:32:19.643Z,15.23
2018-05-04T04:34:47.080Z,19.23
2018-05-04T04:37:14.530Z,14.90
2018-05-04T04:39:41.997Z,10.60
2018-05-04T04:42:09.490Z,13.13
2018-05-04T04:44:39.010Z,11.97
2018-05-04T04:47:06.469Z,13.97
2018-05-04T04:49:33.917Z,13.90
2018-05-04T04:52:01.358Z,10.20
2018-05-04T04:54:28.856Z,10.90
2018-05-04T04:56:56.290Z,12.37
2018-05-04T04:59:23.754Z,9.73
2018-05-04T05:01:51.234Z,12.10
2018-05-04T05:04:18.641Z,12.47
2018-05-04T05:06:46.128Z,11.83
2018-05-04T05:09:13.611Z,11.17
2018-05-04T05:11:41.076Z,9.37
2018-05-04T05:14:08.536Z,8.43
2018-05-04T05:16:35.968Z,9.97
2018-05-04T05:19:03.431Z,9.30
2018-05-04T05:21:30.891Z,9.60
2018-05-04T05:23:58.317Z,8.13
2018-05-04T05:26:25.820Z,12.43
2018-05-04T05:28:53.345Z,14.47
2018-05-04T05:31:20.799Z,10.93
2018-05-04T05:33:48.229Z,13.27
2018-05-04T05:36:15.673Z,8.60
2018-05-04T05:38:43.122Z,13.20
2018-05-04T05:41:10.555Z,14.37
2018-05-04T05:43:38.002Z,9.67
2018-05-04T05:46:05.442Z,9.40
2018-05-04T05:48:32.955Z,15.30
2018-05-04T05:51:00.380Z,12.87
2018-05-04T05:53:27.926Z,11.53
2018-05-04T05:55:55.353Z,13.07
2018-05-04T05:58:22.786Z,10.57
2018-05-04T06:00:50.255Z,8.87
2018-05-04T06:03:17.711Z,13.70
2018-05-04T06:05:45.345Z,9.27
2018-05-04T06:08:12.786Z,11.37
2018-05-04T06:10:40.255Z,8.63
2018-05-04T06:13:07.689Z,9.03
2018-05-04T06:15:35.156Z,10.13
2018-05-04T06:18:02.700Z,10.13
2018-05-04T06:20:30.183Z,8.60
2018-05-04T06:22:57.630Z,11.63
2018-05-04T06:25:25.075Z,10.70
2018-05-04T06:27:52.505Z,10.77
2018-05-04T06:30:19.958Z,9.13
2018-05-04T06:32:47.436Z,7.97
2018-05-04T06:35:14.869Z,9.47
2018-05-04T06:37:42.350Z,11.50
2018-05-04T06:40:09.798Z,8.03
2018-05-04T06:42:37.264Z,8.43
2018-05-04T06:45:04.709Z,8.80
2018-05-04T06:47:32.161Z,8.20
2018-05-04T06:49:59.739Z,8.87
2018-05-04T06:52:27.179Z,7.47
2018-05-04T06:54:54.638Z,6.37
2018-05-04T06:57:22.270Z,8.97
2018-05-04T06:59:49.770Z,12.00
2018-05-04T07:02:17.259Z,8.40
2018-05-04T07:04:44.737Z,10.33
2018-05-04T07:07:12.836Z,10.10
2018-05-04T07:09:40.279Z,8.13
2018-05-04T07:12:07.716Z,7.07
2018-05-04T07:14:35.139Z,6.93
2018-05-04T07:17:02.581Z,5.93
2018-05-04T07:19:30.009Z,5.93
2018-05-04T07:21:57.518Z,5.97
2018-05-04T07:24:24.872Z,5.20
2018-05-04T07:26:52.353Z,4.60
2018-05-04T07:29:19.805Z,6.83
2018-05-04T07:31:47.257Z,8.67
2018-05-04T07:34:14.777Z,7.20
2018-05-04T07:36:42.214Z,6.67
2018-05-04T07:39:09.691Z,7.97
2018-05-04T07:41:37.162Z,7.37
2018-05-04T07:44:04.591Z,7.60
2018-05-04T07:46:32.021Z,7.10
2018-05-04T07:48:59.528Z,9.50
2018-05-04T07:51:26.979Z,8.17
2018-05-04T07:53:54.409Z,7.13
2018-05-04T07:56:33.836Z,5.23
2018-05-04T07:59:01.336Z,8.40
2018-05-04T08:01:28.790Z,5.07
2018-05-04T08:03:56.237Z,7.70
2018-05-04T08:06:23.668Z,8.93
2018-05-04T08:08:51.094Z,7.57
2018-05-04T08:11:18.544Z,4.77
2018-05-04T08:13:45.978Z,6.37
2018-05-04T08:16:13.420Z,9.40
2018-05-04T08:18:40.873Z,6.07
2018-05-04T08:21:08.325Z,6.93
2018-05-04T08:23:35.811Z,8.53
2018-05-04T08:26:03.263Z,7.70
2018-05-04T08:28:30.681Z,3.97
2018-05-04T08:30:58.109Z,3.40
2018-05-04T08:33:25.573Z,5.87
2018-05-04T08:35:53.097Z,5.67
2018-05-04T08:38:20.548Z,5.93
2018-05-04T08:40:48.061Z,6.03
2018-05-04T08:43:15.512Z,6.43
2018-05-04T08:45:43.028Z,7.40
2018-05-04T08:48:10.544Z,5.70
2018-05-04T08:50:38.010Z,7.03
2018-05-04T08:53:05.434Z,4.50
2018-05-04T08:55:32.896Z,5.80
2018-05-04T08:58:00.347Z,8.87
2018-05-04T09:00:27.785Z,5.73
2018-05-04T09:02:55.212Z,7.17
2018-05-04T09:05:22.702Z,6.77
2018-05-04T09:07:50.122Z,9.33
2018-05-04T09:10:17.573Z,7.33
2018-05-04T09:12:45.058Z,6.77
2018-05-04T09:15:12.509Z,7.50
2018-05-04T09:17:39.988Z,8.27
2018-05-04T09:20:07.539Z,12.27
2018-05-04T09:22:35.074Z,6.93
2018-05-04T09:25:02.507Z,7.90
2018-05-04T09:27:29.956Z,6.73
2018-05-04T09:29:57.437Z,7.27
2018-05-04T09:32:24.893Z,7.43
2018-05-04T09:34:52.397Z,6.93
2018-05-04T09:37:19.936Z,5.80
2018-05-04T09:39:47.457Z,5.83
2018-05-04T09:42:14.883Z,9.23
2018-05-04T09:44:42.464Z,7.97
2018-05-04T09:47:09.949Z,10.67
2018-05-04T09:49:38.221Z,7.53
2018-05-04T09:52:05.656Z,9.67
2018-05-04T09:54:33.113Z,9.87
2018-05-04T09:57:00.745Z,8.63
2018-05-04T09:59:28.348Z,10.30
2018-05-04T10:01:55.795Z,8.23
2018-05-04T10:04:23.250Z,5.10
2018-05-04T10:06:50.849Z,13.13
2018-05-04T10:09:18.273Z,7.27
2018-05-04T10:11:45.748Z,8.50
2018-05-04T10:14:13.217Z,7.67
2018-05-04T10:16:40.658Z,5.90
2018-05-04T10:19:08.120Z,7.33
2018-05-04T10:21:35.589Z,9.60
2018-05-04T10:24:03.045Z,8.50
2018-05-04T10:26:30.472Z,13.37
2018-05-04T10:28:58.228Z,11.20
2018-05-04T10:31:25.714Z,7.73
2018-05-04T10:33:53.185Z,9.47
2018-05-04T10:36:20.613Z,8.13
2018-05-04T10:38:48.134Z,7.20
2018-05-04T10:41:15.549Z,9.17
2018-05-04T10:43:43.005Z,12.37
2018-05-04T10:46:10.693Z,10.60
2018-05-04T10:48:38.182Z,9.73
2018-05-04T10:51:05.702Z,9.40
2018-05-04T10:53:33.160Z,11.70
2018-05-04T10:56:00.576Z,8.33
2018-05-04T10:58:28.309Z,10.60
2018-05-04T11:00:55.782Z,7.63
2018-05-04T11:03:23.227Z,10.87
2018-05-04T11:05:50.687Z,10.30
2018-05-04T11:08:18.212Z,7.50
2018-05-04T11:10:45.662Z,6.57
2018-05-04T11:13:13.109Z,8.73
2018-05-04T11:15:40.577Z,8.23
2018-05-04T11:18:08.008Z,9.60
2018-05-04T11:20:35.546Z,15.80
2018-05-04T11:23:03.039Z,4.97
2018-05-04T11:25:30.494Z,3.80
2018-05-04T11:27:57.916Z,7.47
2018-05-04T11:30:25.341Z,7.00
2018-05-04T11:32:53.530Z,9.93
2018-05-04T11:35:21.743Z,8.90
2018-05-04T11:37:49.209Z,9.03
2018-05-04T11:40:16.654Z,7.50
2018-05-04T11:42:44.087Z,8.20
2018-05-04T11:45:11.548Z,6.45
2018-05-04T11:47:39.052Z,8.00
2018-05-04T11:50:06.710Z,8.27
2018-05-04T11:52:34.219Z,12.00
2018-05-04T11:55:01.764Z,8.27
2018-05-04T11:57:29.244Z,9.55
2018-05-04T11:59:56.671Z,6.87
2018-05-04T12:02:24.246Z,7.40
2018-05-04T12:04:51.638Z,9.15
2018-05-04T12:07:19.102Z,13.93
2018-05-04T12:09:47.832Z,11.43
2018-05-04T12:12:15.332Z,7.45
2018-05-04T12:14:43.086Z,7.28
2018-05-04T12:17:10.646Z,7.05
2018-05-04T12:19:38.650Z,8.57
2018-05-04T12:22:06.096Z,8.30
2018-05-04T12:24:33.557Z,10.77
2018-05-04T12:27:01.026Z,8.63
2018-05-04T12:29:28.466Z,9.80
2018-05-04T12:31:55.921Z,10.43
2018-05-04T12:34:23.387Z,10.93
2018-05-04T12:36:50.816Z,7.37
2018-05-04T12:39:18.369Z,9.00
2018-05-04T12:41:45.793Z,6.10
2018-05-04T12:44:13.228Z,7.97
2018-05-04T12:46:40.658Z,6.62
2018-05-04T12:49:08.097Z,6.05
2018-05-04T12:51:35.561Z,8.38
2018-05-04T12:54:03.133Z,12.43
2018-05-04T12:56:30.612Z,8.90
2018-05-04T12:58:58.051Z,5.97
2018-05-04T13:01:25.529Z,7.07
2018-05-04T13:03:53.006Z,7.37
2018-05-04T13:06:20.495Z,7.07
2018-05-04T13:08:47.925Z,9.73
2018-05-04T13:11:15.356Z,10.57
2018-05-04T13:13:42.802Z,8.93
2018-05-04T13:16:10.333Z,7.80
2018-05-04T13:18:37.801Z,10.65
2018-05-04T13:21:05.251Z,9.80
2018-05-04T13:23:32.697Z,9.20
2018-05-04T13:26:00.183Z,8.57
2018-05-04T13:28:27.612Z,7.40
2018-05-04T13:30:55.050Z,16.02
2018-05-04T13:33:22.524Z,10.95
2018-05-04T13:35:49.946Z,7.95
2018-05-04T13:38:17.454Z,6.80
2018-05-04T13:40:44.913Z,10.65
2018-05-04T13:43:12.368Z,10.02
2018-05-04T13:45:40.036Z,10.75
2018-05-04T13:48:07.470Z,10.43
2018-05-04T13:50:34.947Z,12.07
2018-05-04T13:53:02.376Z,8.30
2018-05-04T13:55:29.799Z,11.45
2018-05-04T13:57:57.231Z,7.47
2018-05-04T14:00:24.669Z,7.87
2018-05-04T14:02:52.118Z,8.18
2018-05-04T14:05:19.553Z,8.35
2018-05-04T14:07:47.001Z,9.02
2018-05-04T14:10:14.541Z,9.70
2018-05-04T14:12:41.989Z,9.60
2018-05-04T14:15:09.435Z,10.18
2018-05-04T14:17:36.869Z,9.82
2018-05-04T14:20:04.346Z,11.30
2018-05-04T14:22:31.820Z,11.70
2018-05-04T14:24:59.281Z,9.32
2018-05-04T14:27:27.124Z,10.30
2018-05-04T14:29:54.654Z,8.10
2018-05-04T14:32:22.096Z,9.80
2018-05-04T14:34:49.605Z,10.90
2018-05-04T14:37:17.057Z,10.53
2018-05-04T14:39:44.526Z,9.50
2018-05-04T14:42:11.982Z,7.73
2018-05-04T14:44:39.422Z,9.33
2018-05-04T14:47:06.851Z,7.93
2018-05-04T14:49:34.313Z,11.63
2018-05-04T14:52:01.813Z,9.40
2018-05-04T14:54:29.227Z,8.33
2018-05-04T14:56:56.669Z,8.13
2018-05-04T14:59:24.146Z,7.60
2018-05-04T15:01:51.639Z,8.97
2018-05-04T15:04:19.083Z,10.23
2018-05-04T15:06:46.520Z,11.17
2018-05-04T15:09:14.010Z,12.63
2018-05-04T15:11:41.506Z,12.80
2018-05-04T15:14:08.942Z,12.53
2018-05-04T15:16:36.384Z,10.57
2018-05-04T15:19:03.834Z,9.18
2018-05-04T15:21:31.340Z,11.10
2018-05-04T15:23:58.790Z,15.07
2018-05-04T15:26:26.271Z,7.12
2018-05-04T15:28:53.743Z,13.25
2018-05-04T15:31:21.264Z,9.75
2018-05-04T15:33:48.762Z,9.53
2018-05-04T15:36:16.184Z,7.87
2018-05-04T15:38:43.804Z,9.30
2018-05-04T15:41:11.269Z,10.70
2018-05-04T15:43:38.707Z,10.53
2018-05-04T15:46:06.235Z,9.37
2018-05-04T15:48:39.177Z,9.77
2018-05-04T15:51:12.134Z,8.40
2018-05-04T15:53:39.603Z,10.27
2018-05-04T15:56:07.060Z,9.07
2018-05-04T15:58:34.924Z,6.80
2018-05-04T16:01:15.625Z,11.52
2018-05-04T16:03:44.714Z,7.85
2018-05-04T16:06:12.288Z,6.95
2018-05-04T16:08:39.781Z,7.28
2018-05-04T16:11:07.228Z,10.30
2018-05-04T16:13:34.773Z,10.35
2018-05-04T16:16:02.180Z,8.70
2018-05-04T16:18:29.664Z,9.63
2018-05-04T16:20:57.194Z,9.38
2018-05-04T16:23:24.702Z,10.47
2018-05-04T16:25:52.167Z,7.75
2018-05-04T16:28:19.621Z,8.13
2018-05-04T16:30:47.108Z,6.43
2018-05-04T16:33:14.584Z,9.18
2018-05-04T16:35:42.030Z,7.53
2018-05-04T16:38:09.494Z,6.85
2018-05-04T16:40:36.958Z,9.02
2018-05-04T16:43:04.421Z,6.47
2018-05-04T16:45:31.862Z,8.13
2018-05-04T16:48:04.921Z,7.00
2018-05-04T16:50:32.495Z,6.75
2018-05-04T16:52:59.860Z,9.30
2018-05-04T16:55:27.298Z,8.03
2018-05-04T16:57:54.757Z,5.93
2018-05-04T17:00:22.243Z,6.63
2018-05-04T17:02:49.816Z,6.60
2018-05-04T17:05:17.266Z,12.30
2018-05-04T17:07:44.769Z,7.07
2018-05-04T17:10:12.206Z,8.13
2018-05-04T17:12:39.650Z,9.53
2018-05-04T17:15:07.098Z,8.87
2018-05-04T17:17:34.530Z,7.30
2018-05-04T17:20:01.964Z,11.77
2018-05-04T17:22:29.431Z,12.00
2018-05-04T17:24:56.901Z,6.33
2018-05-04T17:27:24.341Z,11.43
2018-05-04T17:29:51.773Z,9.83
2018-05-04T17:32:19.268Z,5.57
2018-05-04T17:34:46.725Z,7.03
2018-05-04T17:37:14.153Z,6.80
2018-05-04T17:39:41.594Z,7.13
2018-05-04T17:42:09.080Z,9.73
2018-05-04T17:44:36.549Z,8.93
2018-05-04T17:47:03.968Z,9.00
2018-05-04T17:49:31.438Z,5.63
2018-05-04T17:51:58.988Z,6.30
2018-05-04T17:54:26.540Z,7.60
2018-05-04T17:56:53.990Z,8.33
2018-05-04T17:59:21.421Z,5.80
2018-05-04T18:01:48.866Z,6.57
2018-05-04T18:04:16.376Z,7.27
2018-05-04T18:06:43.821Z,10.90
2018-05-04T18:09:11.505Z,7.83
2018-05-04T18:11:38.946Z,5.87
2018-05-04T18:14:06.406Z,6.90
2018-05-04T18:16:33.834Z,3.63
2018-05-04T18:19:01.288Z,8.83
2018-05-04T18:21:28.734Z,6.73
2018-05-04T18:23:56.255Z,7.30
2018-05-04T18:26:23.681Z,7.50
2018-05-04T18:28:51.110Z,10.10
2018-05-04T18:31:18.560Z,5.03
2018-05-04T18:33:46.085Z,4.27
2018-05-04T18:36:13.534Z,8.03
2018-05-04T18:38:41.105Z,8.43
2018-05-04T18:41:08.601Z,8.90
2018-05-04T18:43:36.045Z,7.23
2018-05-04T18:46:03.575Z,5.63
2018-05-04T18:48:31.034Z,5.20
2018-05-04T18:50:58.472Z,6.33
2018-05-04T18:53:25.909Z,5.07
2018-05-04T18:55:53.352Z,7.53
2018-05-04T18:58:20.801Z,5.20
2018-05-04T19:00:48.253Z,6.00
2018-05-04T19:03:21.520Z,5.97
2018-05-04T19:05:48.986Z,4.90
2018-05-04T19:08:17.183Z,5.93
2018-05-04T19:10:44.823Z,5.87
2018-05-04T19:13:12.486Z,4.97
2018-05-04T19:15:39.924Z,10.60
2018-05-04T19:18:07.356Z,5.43
2018-05-04T19:20:34.963Z,7.13
2018-05-04T19:23:02.381Z,4.53
2018-05-04T19:25:29.838Z,4.90
2018-05-04T19:27:57.265Z,6.70
2018-05-04T19:30:24.776Z,4.63
2018-05-04T19:32:52.200Z,6.70
2018-05-04T19:35:19.826Z,7.83
2018-05-04T19:37:47.256Z,5.30
2018-05-04T19:40:14.905Z,5.73
2018-05-04T19:42:42.426Z,6.53
2018-05-04T19:45:09.954Z,6.17
2018-05-04T19:47:37.406Z,5.57
2018-05-04T19:50:04.825Z,6.63
2018-05-04T19:52:32.273Z,7.30
2018-05-04T19:54:59.768Z,6.63
2018-05-04T19:57:27.243Z,3.70
2018-05-04T19:59:54.706Z,6.03
2018-05-04T20:02:22.329Z,5.70
2018-05-04T20:04:49.804Z,10.43
2018-05-04T20:07:17.403Z,8.13
2018-05-04T20:09:44.864Z,5.73
2018-05-04T20:12:12.310Z,5.73
2018-05-04T20:14:39.796Z,6.27
2018-05-04T20:17:07.374Z,5.37
2018-05-04T20:19:34.817Z,9.47
2018-05-04T20:22:02.268Z,6.60
2018-05-04T20:24:29.708Z,7.03
2018-05-04T20:26:57.273Z,5.17
2018-05-04T20:29:24.731Z,7.50
2018-05-04T20:31:52.257Z,6.03
2018-05-04T20:34:19.734Z,6.33
2018-05-04T20:36:47.193Z,6.47
2018-05-04T20:39:14.690Z,6.67
2018-05-04T20:41:42.213Z,6.57
2018-05-04T20:44:09.762Z,5.43
2018-05-04T20:46:37.224Z,7.97
2018-05-04T20:49:04.720Z,7.63
2018-05-04T20:51:32.198Z,5.13
2018-05-04T20:54:00.055Z,5.07
2018-05-04T20:56:27.609Z,5.43
2018-05-04T20:58:55.139Z,4.90
2018-05-04T21:01:22.515Z,5.37
2018-05-04T21:03:50.053Z,7.03
2018-05-04T21:06:17.523Z,5.03
2018-05-04T21:08:44.940Z,5.37
2018-05-04T21:11:12.385Z,7.83
2018-05-04T21:13:39.852Z,7.27
2018-05-04T21:16:07.285Z,5.67
2018-05-04T21:18:34.825Z,3.73
2018-05-04T21:21:02.266Z,10.80
2018-05-04T21:23:29.914Z,5.37
2018-05-04T21:25:57.366Z,4.90
2018-05-04T21:28:24.797Z,5.90
2018-05-04T21:30:52.242Z,6.30
2018-05-04T21:33:19.693Z,5.57
2018-05-04T21:35:47.149Z,7.30
2018-05-04T21:38:14.730Z,4.50
2018-05-04T21:40:42.193Z,6.23
2018-05-04T21:43:09.815Z,7.80
2018-05-04T21:45:37.473Z,5.40
2018-05-04T21:48:05.236Z,5.33
2018-05-04T21:50:32.726Z,5.80
2018-05-04T21:53:00.252Z,4.17
2018-05-04T21:55:27.729Z,5.70
2018-05-04T21:57:55.266Z,5.03
2018-05-04T22:00:22.866Z,4.37
2018-05-04T22:02:50.309Z,5.37
2018-05-04T22:05:17.963Z,5.10
2018-05-04T22:07:45.425Z,5.00
2018-05-04T22:10:12.914Z,6.00
2018-05-04T22:12:40.369Z,4.57
2018-05-04T22:15:08.144Z,5.00
2018-05-04T22:17:35.653Z,3.10
2018-05-04T22:26:02.176Z,4.17
2018-05-04T22:28:29.715Z,5.67
2018-05-04T22:30:57.265Z,4.37
2018-05-04T22:33:24.940Z,8.07
2018-05-04T22:35:52.512Z,8.23
2018-05-04T22:38:20.041Z,4.33
2018-05-04T22:40:47.555Z,4.80
2018-05-04T22:43:15.173Z,6.77
2018-05-04T22:45:42.841Z,6.27
2018-05-04T22:48:10.471Z,6.00
2018-05-04T22:50:38.003Z,8.80
2018-05-04T22:53:05.536Z,5.80
2018-05-04T22:55:33.132Z,6.70
2018-05-04T22:58:00.634Z,5.70
2018-05-04T23:00:28.165Z,6.67
2018-05-04T23:02:55.762Z,5.00
2018-05-04T23:05:23.364Z,5.00
2018-05-04T23:07:51.006Z,6.13
2018-05-04T23:10:18.550Z,5.63
2018-05-04T23:12:46.207Z,4.03
2018-05-04T23:15:13.747Z,6.57
2018-05-04T23:17:41.284Z,6.67
2018-05-04T23:20:08.799Z,6.83
2018-05-04T23:22:38.386Z,6.60
2018-05-04T23:25:05.945Z,7.67
2018-05-04T23:27:33.460Z,5.13
2018-05-04T23:30:01.005Z,3.90
2018-05-04T23:32:28.636Z,5.10
2018-05-04T23:34:56.247Z,4.40
2018-05-04T23:37:23.771Z,5.93
2018-05-04T23:39:51.290Z,7.20
2018-05-04T23:42:18.836Z,8.30
2018-05-04T23:44:46.443Z,7.60
2018-05-04T23:47:13.974Z,8.17
2018-05-04T23:49:41.489Z,6.57
2018-05-04T23:52:09.012Z,6.53
2018-05-04T23:54:36.578Z,7.27
2018-05-04T23:57:04.098Z,6.90
2018-05-04T23:59:31.740Z,5.80
